Ana Sayfa
METAR-TAF:

METAR-TAF

Havaalanları :

Lampang, Tayland

Enlem: 18-17N, Boylam: 099-31E, yükseklik: 241 m

Güncel hava durumu gözlemi

Rapor saat 12:00 UTC de 8 saat ve 27 dakika önce yapıldı.
Rüzgar güneydoğudan 3 kt
Sıcaklık 28°C
Nem 42%
Basınç 1011 hPa
Görüş mesafesi 10 km veya daha fazla
3500 ft yükseklikte az bulutlu

METAR: VTCL 241200Z 13003KT 9999 FEW035 28/14 Q1011 NOSIG

Saat: 03:27 (20:27 UTC)

Tahmin

Rapor saat 17:00 UTC de 3 saat ve 27 dakika önce yapıldı.
Ayın 24'si saat 18 UTC'den ayın 25'si saat 18 UTC'ye kadar geçerli Tahmin
Rüzgar güneydan 5 kt
Görüş mesafesi 10 km veya daha fazla
3500 ft yükseklikte az bulutlu

TAF: VTCL 241700Z 2418/2518 18005KT 9999 FEW035

4.000'den fazla havaalanı için hava durumu gözlemleri ve tahminleri (METAR ve TAF raporları).

Kullanılabilir istasyonlar harita üzerinde sarı ve kırmızı noktalarla gösterilir.

İstasyonun adını görmek için fareyi noktanın üzerinde gezdirin.

Sonrasında hava gözlem ve tahminlerini görmek için tıklayın.

Haritayı değiştirmek için: yaklaştırmak için siyah artı işaretli yeşil düğmeye ve uzaklaştırmak için de eksi işaretli düğmeye hızla tıklayın; bitişik haritalar için yeşil okları kullanın.


METAR-TAF: